Time;durP1;ratioP1;P1;durP2;ratioP2;P2;SDS_P1;SDS_P2;PMS_P1;PMS_P2;Temp;Humidity;BMP_temperature;BMP_pressure;BME280_temperature;BME280_humidity;BME280_pressure;Samples;Min_cycle;Max_cycle;Signal;HPM_P1;HPM_P2
2022/11/27 00:00:42;;;;;;;16.40;4.55;;;7.00;99.90;;;;;;5054408;28;20048;-68
2022/11/27 00:03:07;;;;;;;14.77;4.90;;;7.00;99.90;;;;;;5070931;28;20048;-67
2022/11/27 00:05:33;;;;;;;11.80;5.43;;;7.00;99.90;;;;;;5070954;28;20505;-69
2022/11/27 00:07:59;;;;;;;11.48;4.97;;;7.00;99.90;;;;;;5072297;28;20063;-68
2022/11/27 00:10:24;;;;;;;12.02;4.93;;;7.00;99.90;;;;;;5072208;28;20036;-67
2022/11/27 00:12:50;;;;;;;12.95;4.63;;;6.90;99.90;;;;;;5070773;28;20079;-67
2022/11/27 00:15:16;;;;;;;10.35;4.90;;;6.90;99.90;;;;;;5071101;28;20037;-68
2022/11/27 00:17:41;;;;;;;13.10;4.80;;;6.90;99.90;;;;;;5070613;28;20112;-68
2022/11/27 00:20:07;;;;;;;15.95;4.78;;;6.90;99.90;;;;;;5071588;28;20410;-67
2022/11/27 00:22:33;;;;;;;13.18;4.80;;;6.90;99.90;;;;;;5071793;28;20047;-67
2022/11/27 00:24:58;;;;;;;12.85;4.22;;;6.80;99.90;;;;;;5064545;28;20041;-68
2022/11/27 00:27:25;;;;;;;17.55;5.32;;;6.90;99.90;;;;;;5050112;28;20041;-68
2022/11/27 00:29:50;;;;;;;14.13;4.63;;;6.90;99.90;;;;;;5051986;28;20057;-67
2022/11/27 00:32:16;;;;;;;11.30;5.10;;;6.80;99.90;;;;;;5051552;28;20461;-68
2022/11/27 00:34:41;;;;;;;15.48;4.22;;;6.80;99.90;;;;;;5050572;28;20052;-67
2022/11/27 00:37:07;;;;;;;12.27;4.65;;;6.80;99.90;;;;;;5051360;28;20124;-67
2022/11/27 00:39:33;;;;;;;13.77;4.88;;;6.80;99.90;;;;;;5051657;28;20091;-67
2022/11/27 00:41:58;;;;;;;15.88;4.72;;;6.80;99.90;;;;;;5050006;28;20064;-68
2022/11/27 00:44:24;;;;;;;10.20;3.75;;;6.70;99.90;;;;;;5050543;28;20040;-68
2022/11/27 00:46:50;;;;;;;16.15;5.32;;;6.70;99.90;;;;;;5051352;28;20044;-67
2022/11/27 00:49:15;;;;;;;14.40;5.18;;;6.70;99.90;;;;;;5051152;28;20029;-67
2022/11/27 00:51:41;;;;;;;14.55;4.90;;;6.70;99.90;;;;;;5050023;28;20037;-67
2022/11/27 00:54:07;;;;;;;9.02;4.72;;;6.70;99.90;;;;;;5050382;28;20091;-67
2022/11/27 00:56:36;;;;;;;13.82;4.78;;;6.70;99.90;;;;;;5051539;28;20037;-67
2022/11/27 00:59:02;;;;;;;10.85;4.32;;;6.60;99.90;;;;;;5051010;28;20128;-67
2022/11/27 01:01:40;;;;;;;13.80;4.72;;;6.70;99.90;;;;;;5051336;28;20436;-68
2022/11/27 01:04:10;;;;;;;11.85;4.93;;;6.60;99.90;;;;;;5050385;28;20056;-67
2022/11/27 01:06:36;;;;;;;14.82;5.18;;;6.60;99.90;;;;;;5060421;28;20036;-67
2022/11/27 01:09:02;;;;;;;12.35;4.90;;;6.60;99.90;;;;;;5070967;28;20048;-67
2022/11/27 01:11:31;;;;;;;13.20;4.72;;;6.50;99.90;;;;;;5069811;28;20516;-67
2022/11/27 01:13:59;;;;;;;15.32;5.03;;;6.60;99.90;;;;;;5070443;28;20040;-67
2022/11/27 01:16:28;;;;;;;13.55;4.40;;;6.50;99.90;;;;;;5070047;28;20140;-67
2022/11/27 01:18:58;;;;;;;11.30;5.22;;;6.50;99.90;;;;;;5071188;28;20040;-68
2022/11/27 01:21:26;;;;;;;12.15;4.93;;;6.50;99.90;;;;;;5071136;28;20059;-68
2022/11/27 01:23:53;;;;;;;12.15;5.10;;;6.40;99.90;;;;;;5070288;28;20044;-67
2022/11/27 01:26:19;;;;;;;10.07;4.25;;;6.40;99.90;;;;;;5070689;28;20048;-67
2022/11/27 01:28:45;;;;;;;13.25;4.55;;;6.50;99.90;;;;;;5070795;28;20036;-67
2022/11/27 01:31:16;;;;;;;14.45;5.35;;;6.50;99.90;;;;;;5070645;28;20533;-68
2022/11/27 01:33:43;;;;;;;13.77;4.80;;;6.40;99.90;;;;;;5070137;28;20500;-67
2022/11/27 01:36:11;;;;;;;19.17;4.38;;;6.30;99.90;;;;;;5070511;28;20037;-67
2022/11/27 01:38:37;;;;;;;12.30;4.65;;;6.40;99.90;;;;;;5068991;28;20587;-67
2022/11/27 01:41:16;;;;;;;11.60;4.43;;;6.40;99.90;;;;;;5070882;28;20048;-71
2022/11/27 01:43:51;;;;;;;13.13;5.75;;;6.40;99.90;;;;;;5070237;28;20047;-67
2022/11/27 01:46:26;;;;;;;8.93;4.03;;;6.40;99.90;;;;;;5070607;28;20051;-67
2022/11/27 01:48:56;;;;;;;9.10;4.80;;;6.30;99.90;;;;;;5070726;28;20397;-68
2022/11/27 01:51:22;;;;;;;15.40;4.97;;;6.30;99.90;;;;;;5070830;28;20040;-68
2022/11/27 01:53:50;;;;;;;13.18;4.97;;;6.30;99.90;;;;;;5070130;28;20146;-68
2022/11/27 01:56:16;;;;;;;12.20;5.28;;;6.20;99.90;;;;;;5070796;28;20043;-68
2022/11/27 01:58:42;;;;;;;9.85;4.07;;;6.20;99.90;;;;;;5072844;28;20501;-68
2022/11/27 02:01:08;;;;;;;11.55;4.30;;;6.20;99.90;;;;;;5074763;28;20033;-68
2022/11/27 02:03:33;;;;;;;11.25;4.45;;;6.10;99.90;;;;;;5072878;28;20044;-68
2022/11/27 02:05:59;;;;;;;10.23;5.07;;;6.20;99.90;;;;;;5073861;28;20483;-67
2022/11/27 02:08:24;;;;;;;14.48;6.07;;;6.10;99.90;;;;;;5074469;28;20405;-68
2022/11/27 02:10:53;;;;;;;23.13;4.97;;;6.20;99.90;;;;;;5074294;28;20481;-67
2022/11/27 02:13:36;;;;;;;14.75;5.10;;;6.10;99.90;;;;;;5074368;28;20051;-68
2022/11/27 02:16:10;;;;;;;;;;;6.10;99.90;;;;;;5073994;28;20382;-67
2022/11/27 02:18:50;;;;;;;7.55;4.85;;;6.00;99.90;;;;;;5074389;28;19923;-68
2022/11/27 02:21:46;;;;;;;14.68;5.10;;;6.00;99.90;;;;;;5074414;28;20072;-68
2022/11/27 02:24:22;;;;;;;8.73;4.18;;;6.10;99.90;;;;;;5067216;28;20052;-68
2022/11/27 02:27:08;;;;;;;11.73;4.93;;;6.00;99.90;;;;;;5074024;28;20040;-67
2022/11/27 02:29:35;;;;;;;11.07;4.63;;;6.00;99.90;;;;;;5073858;28;20037;-67
2022/11/27 02:32:07;;;;;;;12.30;4.38;;;6.00;99.90;;;;;;5074260;28;20047;-67
2022/11/27 02:34:43;;;;;;;10.38;4.60;;;6.00;99.90;;;;;;5072955;28;20405;-68
2022/11/27 02:37:24;;;;;;;12.18;4.55;;;6.00;99.90;;;;;;5055916;28;20068;-67
2022/11/27 02:40:02;;;;;;;11.25;4.47;;;6.00;99.90;;;;;;5072343;28;20086;-67
2022/11/27 02:42:37;;;;;;;17.05;4.55;;;6.00;99.90;;;;;;5073735;28;20055;-67
2022/11/27 02:45:13;;;;;;;11.07;4.40;;;5.90;99.90;;;;;;5073192;28;20113;-67
2022/11/27 02:47:41;;;;;;;14.90;4.63;;;6.00;99.90;;;;;;5073658;28;20048;-68
2022/11/27 02:50:20;;;;;;;10.23;4.13;;;6.00;99.90;;;;;;5072443;28;20047;-68
2022/11/27 02:52:47;;;;;;;11.00;4.68;;;6.00;99.90;;;;;;5073679;28;20123;-67
2022/11/27 02:55:17;;;;;;;16.02;5.55;;;5.90;99.90;;;;;;5072769;28;20041;-67
2022/11/27 02:57:43;;;;;;;6.03;3.92;;;5.90;99.90;;;;;;5073701;28;20568;-67
2022/11/27 03:00:10;;;;;;;13.43;5.50;;;5.90;99.90;;;;;;5073373;28;20131;-68
2022/11/27 03:02:41;;;;;;;14.20;4.22;;;5.90;99.90;;;;;;5073556;28;20091;-66
2022/11/27 03:05:11;;;;;;;14.80;4.68;;;5.90;99.90;;;;;;5054989;28;20104;-68
2022/11/27 03:07:45;;;;;;;10.13;4.65;;;5.90;99.90;;;;;;5073604;28;20047;-67
2022/11/27 03:10:19;;;;;;;13.88;5.07;;;5.90;99.90;;;;;;5072409;28;20493;-68
2022/11/27 03:12:47;;;;;;;10.25;4.18;;;5.90;99.90;;;;;;5073554;28;20033;-67
2022/11/27 03:15:12;;;;;;;12.48;4.25;;;5.90;99.90;;;;;;5070817;28;20400;-67
2022/11/27 03:17:53;;;;;;;6.95;4.22;;;5.90;99.90;;;;;;5073125;28;20044;-67
2022/11/27 03:20:31;;;;;;;11.05;4.30;;;5.90;99.90;;;;;;5072979;28;20052;-68
2022/11/27 03:22:57;;;;;;;11.65;5.00;;;5.90;99.90;;;;;;5073300;28;20044;-67
2022/11/27 03:25:23;;;;;;;14.13;4.35;;;5.90;99.90;;;;;;5071876;28;20037;-67
2022/11/27 03:28:00;;;;;;;9.70;3.85;;;5.90;99.90;;;;;;5072966;28;20040;-67
2022/11/27 03:30:26;;;;;;;9.48;4.40;;;5.90;99.90;;;;;;5072985;28;20080;-66
2022/11/27 03:32:51;;;;;;;10.40;4.38;;;5.90;99.90;;;;;;5072730;28;20071;-68
2022/11/27 03:35:23;;;;;;;10.07;4.30;;;6.00;99.90;;;;;;5071833;28;20120;-67
2022/11/27 03:37:49;;;;;;;6.57;3.47;;;5.90;99.90;;;;;;5073017;28;20048;-67
2022/11/27 03:40:16;;;;;;;10.40;5.00;;;5.90;99.90;;;;;;5071181;28;20317;-67
2022/11/27 03:43:05;;;;;;;8.98;3.50;;;5.90;99.90;;;;;;5072647;28;20123;-68
2022/11/27 03:45:41;;;;;;;10.88;4.07;;;5.90;99.90;;;;;;5071765;28;20044;-67
2022/11/27 03:48:46;;;;;;;10.05;3.83;;;6.00;99.90;;;;;;5072756;28;20051;-68
2022/11/27 03:51:23;;;;;;;11.88;3.75;;;5.90;99.90;;;;;;5072497;28;20039;-67
2022/11/27 03:54:11;;;;;;;10.50;3.88;;;5.90;99.90;;;;;;5071751;28;20054;-67
2022/11/27 03:56:52;;;;;;;8.55;3.20;;;5.90;99.90;;;;;;5072425;28;20075;-68
2022/11/27 03:59:31;;;;;;;11.23;3.58;;;6.00;99.90;;;;;;5072301;28;20033;-68
2022/11/27 04:01:57;;;;;;;14.57;4.03;;;5.80;99.90;;;;;;5072541;28;20156;-67
2022/11/27 04:04:22;;;;;;;13.07;4.68;;;5.90;99.90;;;;;;5071224;28;20119;-67
2022/11/27 04:06:48;;;;;;;12.35;3.88;;;6.00;99.90;;;;;;5070789;28;20152;-67
2022/11/27 04:09:13;;;;;;;12.52;3.75;;;6.00;99.90;;;;;;5070035;28;20043;-68
2022/11/27 04:11:39;;;;;;;7.70;3.55;;;6.00;99.90;;;;;;5072024;28;20054;-67
2022/11/27 04:14:04;;;;;;;12.63;3.40;;;6.00;99.90;;;;;;5070965;28;20563;-67
2022/11/27 04:16:30;;;;;;;6.57;3.50;;;6.00;99.90;;;;;;5072077;28;20070;-67
2022/11/27 04:18:55;;;;;;;10.05;3.88;;;6.00;99.90;;;;;;5071662;28;20056;-67
2022/11/27 04:21:21;;;;;;;9.02;3.40;;;6.00;99.90;;;;;;5071818;28;20079;-67
2022/11/27 04:23:47;;;;;;;9.88;3.15;;;5.90;99.90;;;;;;5070478;28;20044;-68
2022/11/27 04:26:12;;;;;;;8.75;3.33;;;6.00;99.90;;;;;;5071851;28;20473;-66
2022/11/27 04:28:38;;;;;;;7.93;3.33;;;6.00;99.90;;;;;;5070579;28;20106;-67
2022/11/27 04:31:03;;;;;;;7.32;3.47;;;6.00;99.90;;;;;;5070777;28;20047;-67
2022/11/27 04:33:29;;;;;;;6.03;3.00;;;6.00;99.90;;;;;;5071682;28;20043;-67
2022/11/27 04:35:55;;;;;;;5.95;3.17;;;6.00;99.90;;;;;;5070804;28;20040;-67
2022/11/27 04:38:21;;;;;;;7.88;3.70;;;6.10;99.90;;;;;;5071515;28;20085;-68
2022/11/27 04:40:47;;;;;;;14.23;4.28;;;6.00;99.90;;;;;;5070206;28;20051;-67
2022/11/27 04:43:13;;;;;;;8.60;3.55;;;6.00;99.90;;;;;;5071370;28;20043;-68
2022/11/27 04:45:40;;;;;;;11.57;3.25;;;6.00;99.90;;;;;;5070479;28;20044;-67
2022/11/27 04:48:05;;;;;;;10.27;3.83;;;6.00;99.90;;;;;;5071451;28;20086;-67
2022/11/27 04:50:31;;;;;;;8.38;3.65;;;6.00;99.90;;;;;;5069905;28;20463;-68
2022/11/27 04:52:56;;;;;;;9.40;3.80;;;6.10;99.90;;;;;;5071521;28;20091;-68
2022/11/27 04:55:22;;;;;;;6.78;3.50;;;6.00;99.90;;;;;;5070649;28;20040;-67
2022/11/27 04:57:48;;;;;;;11.10;3.35;;;5.90;99.90;;;;;;5053163;28;20508;-68
2022/11/27 05:00:14;;;;;;;8.70;3.05;;;5.90;99.90;;;;;;5053207;28;20056;-68
2022/11/27 05:02:40;;;;;;;11.32;3.53;;;5.90;99.90;;;;;;5071320;28;20052;-68
2022/11/27 05:05:06;;;;;;;12.32;3.42;;;6.00;99.90;;;;;;5070646;28;20397;-68
2022/11/27 05:07:31;;;;;;;5.75;3.30;;;5.90;99.90;;;;;;5070779;28;20091;-68
2022/11/27 05:09:57;;;;;;;11.60;3.83;;;6.00;99.90;;;;;;5069606;28;20041;-67
2022/11/27 05:12:22;;;;;;;11.20;3.38;;;6.00;99.90;;;;;;5069537;28;20390;-68
2022/11/27 05:14:48;;;;;;;8.20;3.20;;;5.90;99.90;;;;;;5070412;28;20485;-67
2022/11/27 05:17:13;;;;;;;8.68;3.38;;;6.10;99.90;;;;;;5071002;28;20542;-67
2022/11/27 05:19:39;;;;;;;7.13;3.20;;;6.00;99.90;;;;;;5071008;28;20448;-67
2022/11/27 05:22:04;;;;;;;11.68;3.35;;;6.00;99.90;;;;;;5071221;28;20040;-68
2022/11/27 05:24:30;;;;;;;8.90;3.47;;;5.90;99.90;;;;;;5070008;28;20047;-67
2022/11/27 05:26:56;;;;;;;6.65;3.10;;;6.00;99.90;;;;;;5070924;28;20580;-68
2022/11/27 05:29:22;;;;;;;6.85;3.40;;;6.00;99.90;;;;;;5070830;28;20503;-68
2022/11/27 05:31:48;;;;;;;9.82;3.30;;;6.10;99.90;;;;;;5070413;28;20162;-68
2022/11/27 05:34:14;;;;;;;9.57;3.55;;;6.00;99.90;;;;;;5069754;28;20123;-68
2022/11/27 05:36:40;;;;;;;6.53;3.22;;;6.00;99.90;;;;;;5070994;28;20036;-68
2022/11/27 05:39:07;;;;;;;11.73;3.45;;;6.00;99.90;;;;;;5069596;28;20033;-68
2022/11/27 05:41:35;;;;;;;8.32;3.20;;;6.00;99.90;;;;;;5070947;28;20170;-67
2022/11/27 05:44:04;;;;;;;8.23;3.63;;;6.00;99.90;;;;;;5070034;28;20036;-67
2022/11/27 05:46:30;;;;;;;8.90;3.45;;;6.00;99.90;;;;;;5070744;28;20087;-67
2022/11/27 05:48:55;;;;;;;10.35;3.45;;;6.10;99.90;;;;;;5069400;28;20045;-67
2022/11/27 05:51:21;;;;;;;5.75;3.00;;;6.10;99.90;;;;;;5070685;28;20036;-67
2022/11/27 05:53:47;;;;;;;6.75;3.58;;;6.00;99.90;;;;;;5068428;28;20047;-67
2022/11/27 05:56:16;;;;;;;9.93;3.60;;;6.00;99.90;;;;;;5070608;28;20039;-67
2022/11/27 05:58:42;;;;;;;6.43;3.55;;;5.90;99.90;;;;;;5070505;28;20079;-67
2022/11/27 06:01:09;;;;;;;6.32;3.40;;;5.90;99.90;;;;;;5070358;28;20525;-69
2022/11/27 06:03:37;;;;;;;6.50;3.63;;;6.00;99.90;;;;;;5070048;28;20036;-67
2022/11/27 06:06:12;;;;;;;6.82;3.25;;;5.90;99.90;;;;;;5069549;28;20032;-67
2022/11/27 06:08:41;;;;;;;7.72;3.58;;;6.00;99.90;;;;;;5069285;28;20539;-69
2022/11/27 06:11:08;;;;;;;9.55;3.95;;;5.90;99.90;;;;;;5069548;28;20036;-68
2022/11/27 06:13:34;;;;;;;8.15;3.28;;;5.90;99.90;;;;;;5070298;28;20127;-67
2022/11/27 06:16:08;;;;;;;4.75;2.67;;;5.90;99.90;;;;;;5069738;28;20036;-66
2022/11/27 06:18:33;;;;;;;8.85;3.15;;;6.00;99.90;;;;;;5070390;28;20567;-67
2022/11/27 06:20:59;;;;;;;8.68;3.42;;;6.00;99.90;;;;;;5070434;28;20074;-68
2022/11/27 06:23:25;;;;;;;6.70;3.70;;;6.00;99.90;;;;;;5070464;28;20121;-67
2022/11/27 06:25:50;;;;;;;10.65;3.78;;;6.00;99.90;;;;;;5069599;28;20083;-67
2022/11/27 06:28:16;;;;;;;7.03;3.20;;;5.90;99.90;;;;;;5070140;28;20051;-67
2022/11/27 06:30:41;;;;;;;8.48;3.60;;;5.90;99.90;;;;;;5068945;28;20044;-67
2022/11/27 06:33:07;;;;;;;6.47;3.55;;;5.90;99.90;;;;;;5070150;28;20040;-68
2022/11/27 06:35:32;;;;;;;10.10;3.78;;;5.90;99.90;;;;;;5069574;28;20075;-66
2022/11/27 06:37:58;;;;;;;6.18;3.67;;;5.90;99.90;;;;;;5070372;28;20047;-67
2022/11/27 06:40:23;;;;;;;9.43;3.50;;;6.00;99.90;;;;;;5070298;28;20047;-67
2022/11/27 06:42:49;;;;;;;6.63;3.58;;;6.00;99.90;;;;;;5052415;28;20511;-68
2022/11/27 06:45:15;;;;;;;11.50;4.00;;;6.00;99.90;;;;;;5072923;28;20052;-66
2022/11/27 06:47:40;;;;;;;7.60;4.15;;;6.00;99.90;;;;;;5073750;28;20478;-67
2022/11/27 06:50:06;;;;;;;13.43;4.25;;;6.00;99.90;;;;;;5073608;28;20086;-67
2022/11/27 06:52:31;;;;;;;7.13;3.85;;;6.00;99.90;;;;;;5073834;28;20032;-67
2022/11/27 06:54:57;;;;;;;6.25;3.95;;;6.00;99.90;;;;;;5072647;28;20041;-68
2022/11/27 06:57:23;;;;;;;12.93;3.78;;;6.00;99.90;;;;;;5073323;28;20044;-67
2022/11/27 06:59:48;;;;;;;6.70;3.65;;;6.00;99.90;;;;;;5073475;28;20040;-67
2022/11/27 07:02:14;;;;;;;12.20;4.20;;;6.00;99.90;;;;;;5073578;28;20044;-67
2022/11/27 07:04:39;;;;;;;12.65;4.13;;;6.00;99.90;;;;;;5072689;28;20119;-68
2022/11/27 07:07:05;;;;;;;7.05;3.70;;;6.00;99.90;;;;;;5067207;28;20106;-67
2022/11/27 07:09:30;;;;;;;10.07;4.10;;;6.00;99.90;;;;;;5063638;28;20327;-67
2022/11/27 07:11:56;;;;;;;5.95;3.28;;;6.00;99.90;;;;;;5071197;28;20082;-68
2022/11/27 07:14:21;;;;;;;10.15;3.65;;;6.00;99.90;;;;;;5070928;28;20032;-68
2022/11/27 07:16:47;;;;;;;6.28;3.90;;;6.00;99.90;;;;;;5069821;28;20048;-67
2022/11/27 07:19:13;;;;;;;5.80;3.78;;;5.90;99.90;;;;;;5071552;28;20594;-67
2022/11/27 07:21:39;;;;;;;6.90;3.88;;;6.00;99.90;;;;;;5073153;28;20079;-67
2022/11/27 07:24:05;;;;;;;10.82;4.20;;;6.00;99.90;;;;;;5070578;28;20351;-67
2022/11/27 07:26:30;;;;;;;10.00;5.43;;;6.00;99.90;;;;;;5069537;28;20140;-67
2022/11/27 07:28:56;;;;;;;6.60;4.22;;;6.00;99.90;;;;;;5067931;28;20127;-68
2022/11/27 07:31:26;;;;;;;12.57;4.15;;;6.00;99.90;;;;;;5069285;28;20086;-68
2022/11/27 07:33:53;;;;;;;9.45;4.82;;;6.00;99.90;;;;;;5070349;28;20036;-67
2022/11/27 07:36:24;;;;;;;12.27;5.15;;;6.00;99.90;;;;;;5071603;28;20080;-67
2022/11/27 07:38:50;;;;;;;8.18;4.70;;;6.10;99.90;;;;;;5072889;28;20036;-68
2022/11/27 07:41:16;;;;;;;11.90;4.45;;;6.10;99.90;;;;;;5071272;28;20606;-67
2022/11/27 07:43:43;;;;;;;6.68;4.25;;;6.00;99.90;;;;;;5072133;28;20036;-68
2022/11/27 07:46:24;;;;;;;7.07;4.28;;;6.10;99.90;;;;;;5072487;28;20117;-68
2022/11/27 07:48:50;;;;;;;9.02;3.97;;;6.00;99.90;;;;;;5070969;28;20040;-67
2022/11/27 07:51:19;;;;;;;12.30;4.70;;;6.00;99.90;;;;;;5054513;28;20059;-67
2022/11/27 07:53:44;;;;;;;11.93;5.07;;;6.00;99.90;;;;;;5064585;28;20033;-70
2022/11/27 07:56:12;;;;;;;10.63;4.40;;;6.00;99.90;;;;;;5061251;28;20073;-67
2022/11/27 07:58:38;;;;;;;11.45;4.22;;;6.00;99.90;;;;;;5061281;28;20037;-68
2022/11/27 08:01:09;;;;;;;6.85;4.05;;;6.00;99.90;;;;;;5038370;28;20052;-70
2022/11/27 08:03:36;;;;;;;14.43;5.28;;;6.00;99.90;;;;;;5057830;28;20032;-70
2022/11/27 08:06:02;;;;;;;9.35;4.40;;;6.10;99.90;;;;;;5061321;28;20041;-69
2022/11/27 08:08:29;;;;;;;8.98;3.97;;;6.10;99.90;;;;;;5060007;28;20147;-68
2022/11/27 08:10:55;;;;;;;11.25;4.35;;;6.10;99.90;;;;;;5050708;28;20476;-68
2022/11/27 08:13:20;;;;;;;5.85;3.42;;;6.10;99.90;;;;;;5052226;28;20532;-67
2022/11/27 08:15:46;;;;;;;8.98;4.28;;;6.10;99.90;;;;;;5050997;28;20048;-67
2022/11/27 08:18:12;;;;;;;14.25;4.70;;;6.10;99.90;;;;;;5052331;28;20044;-67
2022/11/27 08:20:38;;;;;;;9.85;4.07;;;6.20;99.90;;;;;;5051808;28;20516;-67
2022/11/27 08:23:03;;;;;;;7.75;4.45;;;6.20;99.90;;;;;;5052179;28;20076;-68
2022/11/27 08:25:30;;;;;;;11.63;5.15;;;6.20;99.90;;;;;;5050994;28;20409;-68
2022/11/27 08:27:55;;;;;;;9.15;4.55;;;6.20;99.90;;;;;;5059759;28;20036;-67
2022/11/27 08:30:22;;;;;;;11.20;4.57;;;6.30;99.90;;;;;;5061798;28;20512;-68
2022/11/27 08:32:48;;;;;;;11.52;4.70;;;6.20;99.90;;;;;;5059978;28;20041;-67
2022/11/27 08:35:14;;;;;;;7.22;4.38;;;6.30;99.90;;;;;;5059040;28;20083;-68
2022/11/27 08:37:40;;;;;;;8.98;4.80;;;6.30;99.90;;;;;;5062182;28;20044;-68
2022/11/27 08:40:07;;;;;;;8.35;4.43;;;6.30;99.90;;;;;;5060199;28;20037;-67
2022/11/27 08:42:33;;;;;;;10.88;4.13;;;6.30;99.90;;;;;;5069909;28;20040;-67
2022/11/27 08:44:58;;;;;;;11.55;4.15;;;6.30;99.90;;;;;;5069388;28;20089;-68
2022/11/27 08:47:24;;;;;;;11.85;4.60;;;6.40;99.90;;;;;;5069550;28;20044;-68
2022/11/27 08:49:50;;;;;;;8.75;4.35;;;6.40;99.90;;;;;;5071670;28;20501;-68
2022/11/27 08:52:15;;;;;;;12.98;5.22;;;6.40;99.90;;;;;;5071324;28;20040;-67
2022/11/27 08:54:41;;;;;;;10.80;4.60;;;6.40;99.90;;;;;;5070618;28;20401;-67
2022/11/27 08:57:06;;;;;;;8.70;4.40;;;6.40;99.90;;;;;;5071516;28;20036;-67
2022/11/27 08:59:32;;;;;;;11.93;5.40;;;6.40;99.90;;;;;;5071150;28;20064;-69
2022/11/27 09:01:57;;;;;;;8.10;4.55;;;6.50;99.90;;;;;;5071231;28;20048;-67
2022/11/27 09:04:23;;;;;;;11.85;4.70;;;6.50;99.90;;;;;;5070449;28;20155;-67
2022/11/27 09:06:48;;;;;;;11.13;4.72;;;6.50;99.90;;;;;;5070216;28;20071;-67
2022/11/27 09:09:15;;;;;;;9.63;4.68;;;6.50;99.90;;;;;;5071138;28;20089;-67
2022/11/27 09:11:41;;;;;;;12.38;4.90;;;6.50;99.90;;;;;;5070045;28;20551;-67
2022/11/27 09:14:07;;;;;;;11.25;5.85;;;6.50;99.90;;;;;;5070306;28;20113;-68
2022/11/27 09:16:34;;;;;;;11.65;5.05;;;6.50;99.90;;;;;;5071193;28;20166;-68
2022/11/27 09:19:00;;;;;;;11.50;4.95;;;6.50;99.90;;;;;;5052908;28;20053;-67
2022/11/27 09:21:31;;;;;;;11.30;4.80;;;6.40;99.90;;;;;;5070974;28;20032;-67
2022/11/27 09:23:58;;;;;;;10.93;4.65;;;6.50;99.90;;;;;;5068926;28;20416;-68
2022/11/27 09:26:25;;;;;;;10.13;4.78;;;6.50;99.90;;;;;;5071008;28;20112;-70
2022/11/27 09:28:52;;;;;;;10.90;5.25;;;6.40;99.90;;;;;;5053160;28;20072;-67
2022/11/27 09:31:18;;;;;;;7.50;4.50;;;6.50;99.90;;;;;;5070978;28;20079;-68
2022/11/27 09:33:44;;;;;;;15.88;5.57;;;6.40;99.90;;;;;;5069344;28;20438;-70
2022/11/27 09:36:15;;;;;;;10.27;4.82;;;6.50;99.90;;;;;;5071022;28;20090;-67
2022/11/27 09:38:41;;;;;;;11.82;4.50;;;6.50;99.90;;;;;;5070843;28;20632;-67
2022/11/27 09:41:38;;;;;;;11.90;4.78;;;6.50;99.90;;;;;;5070630;28;20132;-68
2022/11/27 09:44:18;;;;;;;11.20;4.57;;;6.50;99.90;;;;;;5068634;28;20055;-68
2022/11/27 09:46:44;;;;;;;12.13;5.20;;;6.50;99.90;;;;;;5069779;28;20083;-67
2022/11/27 09:49:35;;;;;;;9.63;4.43;;;6.50;99.90;;;;;;5069508;28;20457;-67
2022/11/27 09:52:06;;;;;;;15.75;5.18;;;6.40;99.90;;;;;;5070646;28;20036;-67
2022/11/27 09:54:57;;;;;;;9.25;4.47;;;6.40;99.90;;;;;;5069906;28;20048;-67
2022/11/27 09:57:34;;;;;;;9.93;4.35;;;6.50;99.90;;;;;;5066445;28;20420;-68
2022/11/27 10:00:10;;;;;;;9.90;4.65;;;6.50;99.90;;;;;;5069482;28;20080;-68
2022/11/27 10:02:35;;;;;;;14.05;4.55;;;6.40;99.90;;;;;;5070650;28;20040;-68
2022/11/27 10:05:09;;;;;;;15.55;4.60;;;6.40;99.90;;;;;;5069666;28;20043;-67
2022/11/27 10:07:57;;;;;;;8.90;4.43;;;6.40;99.90;;;;;;5070527;28;20400;-67
2022/11/27 10:10:45;;;;;;;11.50;4.47;;;6.40;99.90;;;;;;5070343;28;20044;-67
2022/11/27 10:13:32;;;;;;;10.48;4.18;;;6.30;99.90;;;;;;5070483;28;20037;-67
2022/11/27 10:16:10;;;;;;;10.43;5.07;;;6.30;99.90;;;;;;5038810;28;20036;-67
2022/11/27 10:18:48;;;;;;;8.38;5.07;;;6.40;99.90;;;;;;5061766;28;20051;-67
2022/11/27 10:21:43;;;;;;;10.73;4.82;;;6.40;99.90;;;;;;5067635;28;20052;-67
2022/11/27 10:24:16;;;;;;;10.30;4.63;;;6.40;99.90;;;;;;5073332;28;20044;-70
2022/11/27 10:26:47;;;;;;;11.65;5.25;;;6.40;99.90;;;;;;5074131;28;20047;-70
2022/11/27 10:29:41;;;;;;;12.02;4.63;;;6.40;99.90;;;;;;5063757;28;20527;-69
2022/11/27 10:32:15;;;;;;;11.85;4.63;;;6.50;99.90;;;;;;5056375;28;20079;-69
2022/11/27 10:34:48;;;;;;;14.38;4.60;;;6.50;99.90;;;;;;5053118;28;20041;-68
2022/11/27 10:37:34;;;;;;;12.52;4.97;;;6.50;99.90;;;;;;5052420;28;20128;-68
2022/11/27 10:40:11;;;;;;;7.80;4.43;;;6.40;99.90;;;;;;5053859;28;20044;-68
2022/11/27 10:43:06;;;;;;;13.15;5.13;;;6.30;99.90;;;;;;5052374;28;20045;-69
2022/11/27 10:46:10;;;;;;;8.93;4.43;;;6.40;99.90;;;;;;5053192;28;20472;-67
2022/11/27 10:48:36;;;;;;;11.55;4.57;;;6.40;99.90;;;;;;5060891;28;20105;-67
2022/11/27 10:51:01;;;;;;;12.80;5.03;;;6.40;99.90;;;;;;5044934;28;20115;-67
2022/11/27 10:53:35;;;;;;;11.13;4.63;;;6.40;99.90;;;;;;5064090;28;20090;-68
2022/11/27 10:56:37;;;;;;;11.55;4.57;;;6.50;99.90;;;;;;5062609;28;20037;-66
2022/11/27 10:59:10;;;;;;;11.90;4.80;;;6.50;99.90;;;;;;5063748;28;20041;-68
2022/11/27 11:01:52;;;;;;;16.15;5.25;;;6.50;99.90;;;;;;5062478;28;20446;-68
2022/11/27 11:04:26;;;;;;;12.70;4.95;;;6.50;99.90;;;;;;5061452;28;20502;-68
2022/11/27 11:06:51;;;;;;;11.95;4.40;;;6.50;99.90;;;;;;5061125;28;20446;-68
2022/11/27 11:09:28;;;;;;;11.55;4.75;;;6.50;99.90;;;;;;5062827;28;20078;-68
2022/11/27 11:12:15;;;;;;;16.77;5.55;;;6.50;99.90;;;;;;5062057;28;20458;-67
2022/11/27 11:14:59;;;;;;;14.10;5.47;;;6.50;99.90;;;;;;5060444;28;20379;-68
2022/11/27 11:17:33;;;;;;;11.43;5.80;;;6.50;99.90;;;;;;5062073;28;20045;-68
2022/11/27 11:19:59;;;;;;;13.27;5.60;;;6.50;99.90;;;;;;5062488;28;20088;-67
2022/11/27 11:22:27;;;;;;;14.40;5.43;;;6.50;99.90;;;;;;5060943;28;20086;-67
2022/11/27 11:24:54;;;;;;;13.82;5.50;;;6.50;99.90;;;;;;5062601;28;20041;-67
2022/11/27 11:27:29;;;;;;;13.65;5.82;;;6.50;99.90;;;;;;5062461;28;20401;-67
2022/11/27 11:30:04;;;;;;;8.88;4.97;;;6.60;99.90;;;;;;5059347;28;20044;-67
2022/11/27 11:32:31;;;;;;;11.52;4.70;;;6.60;99.90;;;;;;5061433;28;20037;-67
2022/11/27 11:34:59;;;;;;;10.65;5.03;;;6.60;99.90;;;;;;5056964;28;20110;-66
2022/11/27 11:37:25;;;;;;;10.85;5.82;;;6.60;99.90;;;;;;5035048;28;20049;-66
2022/11/27 11:40:04;;;;;;;11.10;4.85;;;6.50;99.90;;;;;;5052971;28;20094;-67
2022/11/27 11:42:31;;;;;;;11.55;4.68;;;6.60;99.90;;;;;;5052889;28;20048;-67
2022/11/27 11:45:15;;;;;;;10.05;4.90;;;6.60;99.90;;;;;;5064947;28;20036;-66
2022/11/27 11:47:49;;;;;;;9.43;5.28;;;6.60;99.90;;;;;;5071237;28;20037;-68
2022/11/27 11:50:27;;;;;;;10.23;4.85;;;6.60;99.90;;;;;;5071607;28;20532;-67
2022/11/27 11:53:17;;;;;;;9.20;5.03;;;6.60;99.90;;;;;;5072071;28;20040;-66
2022/11/27 11:56:04;;;;;;;10.10;4.70;;;6.60;99.90;;;;;;5069572;28;20040;-66
2022/11/27 11:58:30;;;;;;;9.65;4.75;;;6.60;99.90;;;;;;5070376;28;20078;-67
2022/11/27 12:01:28;;;;;;;9.95;5.05;;;6.60;99.90;;;;;;5052263;28;20048;-66
2022/11/27 12:04:32;;;;;;;10.98;5.75;;;6.70;99.90;;;;;;5070985;28;20040;-66
2022/11/27 12:07:35;;;;;;;11.25;4.90;;;6.70;99.90;;;;;;5071515;28;20128;-66
2022/11/27 12:10:19;;;;;;;11.38;5.43;;;6.60;99.90;;;;;;5071868;28;20040;-67
2022/11/27 12:12:59;;;;;;;12.77;4.80;;;6.70;99.90;;;;;;5072023;28;20427;-67
2022/11/27 12:15:39;;;;;;;13.77;5.53;;;6.70;99.90;;;;;;5070542;28;20051;-67
2022/11/27 12:18:17;;;;;;;11.65;6.22;;;6.70;99.90;;;;;;5067032;28;20036;-66
2022/11/27 12:20:59;;;;;;;10.43;5.55;;;6.80;99.90;;;;;;5062214;28;20060;-66
2022/11/27 12:23:40;;;;;;;12.45;5.75;;;6.80;99.90;;;;;;5058051;28;20051;-66
2022/11/27 12:26:50;;;;;;;12.15;5.97;;;6.70;99.90;;;;;;5041267;28;20049;-66
2022/11/27 12:29:41;;;;;;;9.38;4.80;;;6.80;99.90;;;;;;5059433;28;20102;-67
2022/11/27 12:32:10;;;;;;;11.13;5.50;;;6.80;99.90;;;;;;5065407;28;20040;-66
2022/11/27 12:34:48;;;;;;;14.50;6.35;;;6.80;99.90;;;;;;5059887;28;20037;-66
2022/11/27 12:37:33;;;;;;;9.07;4.90;;;6.80;99.90;;;;;;5063193;28;20489;-67
2022/11/27 12:40:44;;;;;;;9.57;5.22;;;6.80;99.90;;;;;;5058209;28;20437;-66
2022/11/27 12:43:23;;;;;;;10.80;5.30;;;6.80;99.90;;;;;;5048035;28;20045;-66
2022/11/27 12:45:53;;;;;;;11.85;5.15;;;6.80;99.90;;;;;;5050364;28;20044;-66
2022/11/27 12:48:39;;;;;;;13.90;5.40;;;6.80;99.90;;;;;;5033085;28;20053;-66
2022/11/27 12:51:06;;;;;;;14.93;5.90;;;6.80;99.90;;;;;;5051507;28;20041;-67
2022/11/27 12:53:53;;;;;;;14.02;5.95;;;6.80;99.90;;;;;;5050996;28;20430;-67
2022/11/27 12:56:23;;;;;;;12.52;6.18;;;6.80;99.90;;;;;;5051063;28;20116;-66
2022/11/27 12:59:15;;;;;;;12.18;6.38;;;6.70;99.90;;;;;;5051065;28;20044;-66
2022/11/27 13:01:51;;;;;;;13.80;6.15;;;6.80;99.90;;;;;;5050999;28;20044;-66
2022/11/27 13:04:43;;;;;;;15.05;5.70;;;6.80;99.90;;;;;;5049970;28;20072;-66
2022/11/27 13:07:27;;;;;;;10.88;5.57;;;6.70;99.90;;;;;;5049335;28;20044;-66
2022/11/27 13:10:03;;;;;;;9.73;5.45;;;6.80;99.90;;;;;;5049408;28;20048;-66